Terminal Aerodrome Forecast
Issued by NWS Topeka, KS

Home | Current Version | Previous Version | Text Only | Print | Product List | Glossary Off
Versions: 1 2 3 4 5 6 7 8 9 10 11 12 13 14 15 16 17

000
FTUS43 KTOP 222300
TAFTOP
TAF
KTOP 222328Z 2300/2324 12005KT P6SM SCT120
     FM231000 14011KT P6SM VCSH BKN100
     FM231500 15017G24KT P6SM SCT120=

USA.gov is the U.S. government's official web portal to all federal, state and local government web resources and services.